sensor_id;sensor_type;location;lat;lon;timestamp;pressure;altitude;pressure_sealevel;temperature;humidity
68301;BME280;55146;47.468;18.806;2023-09-18T00:01:46;100258.25;;;20.59;76.83
68301;BME280;55146;47.468;18.806;2023-09-18T00:04:11;100250.50;;;20.56;77.13
68301;BME280;55146;47.468;18.806;2023-09-18T00:06:37;100256.28;;;20.51;77.22
68301;BME280;55146;47.468;18.806;2023-09-18T00:09:02;100259.59;;;20.53;77.17
68301;BME280;55146;47.468;18.806;2023-09-18T00:11:28;100248.22;;;20.58;77.09
68301;BME280;55146;47.468;18.806;2023-09-18T00:13:53;100245.09;;;20.59;77.03
68301;BME280;55146;47.468;18.806;2023-09-18T00:16:19;100252.03;;;20.53;76.99
68301;BME280;55146;47.468;18.806;2023-09-18T00:18:44;100245.69;;;20.36;77.54
68301;BME280;55146;47.468;18.806;2023-09-18T00:21:10;100241.88;;;20.32;77.86
68301;BME280;55146;47.468;18.806;2023-09-18T00:23:37;100247.69;;;20.35;77.86
68301;BME280;55146;47.468;18.806;2023-09-18T00:26:03;100240.75;;;20.41;77.87
68301;BME280;55146;47.468;18.806;2023-09-18T00:28:28;100240.56;;;20.38;77.76
68301;BME280;55146;47.468;18.806;2023-09-18T00:30:54;100242.56;;;20.37;77.72
68301;BME280;55146;47.468;18.806;2023-09-18T00:33:19;100247.19;;;20.33;77.65
68301;BME280;55146;47.468;18.806;2023-09-18T00:35:49;100245.03;;;20.30;77.68
68301;BME280;55146;47.468;18.806;2023-09-18T00:38:15;100246.19;;;20.29;77.80
68301;BME280;55146;47.468;18.806;2023-09-18T00:40:41;100253.59;;;20.25;77.88
68301;BME280;55146;47.468;18.806;2023-09-18T00:43:08;100246.91;;;20.17;78.05
68301;BME280;55146;47.468;18.806;2023-09-18T00:45:38;100241.44;;;20.21;78.16
68301;BME280;55146;47.468;18.806;2023-09-18T00:48:05;100244.25;;;20.21;78.08
68301;BME280;55146;47.468;18.806;2023-09-18T00:50:31;100248.00;;;20.25;78.12
68301;BME280;55146;47.468;18.806;2023-09-18T00:52:56;100247.00;;;20.30;78.06
68301;BME280;55146;47.468;18.806;2023-09-18T00:55:22;100247.00;;;20.30;78.00
68301;BME280;55146;47.468;18.806;2023-09-18T00:57:47;100249.81;;;20.30;77.96
68301;BME280;55146;47.468;18.806;2023-09-18T01:00:13;100252.59;;;20.30;77.90
68301;BME280;55146;47.468;18.806;2023-09-18T01:02:42;100242.09;;;20.27;77.85
68301;BME280;55146;47.468;18.806;2023-09-18T01:05:08;100231.91;;;20.22;77.96
68301;BME280;55146;47.468;18.806;2023-09-18T01:07:33;100228.62;;;20.20;77.99
68301;BME280;55146;47.468;18.806;2023-09-18T01:09:59;100224.88;;;20.16;78.01
68301;BME280;55146;47.468;18.806;2023-09-18T01:12:36;100223.25;;;20.15;78.13
68301;BME280;55146;47.468;18.806;2023-09-18T01:17:35;100224.56;;;20.09;78.38
68301;BME280;55146;47.468;18.806;2023-09-18T01:20:04;100228.53;;;20.08;78.52
68301;BME280;55146;47.468;18.806;2023-09-18T01:22:31;100222.44;;;20.06;78.55
68301;BME280;55146;47.468;18.806;2023-09-18T01:24:57;100230.34;;;20.04;78.66
68301;BME280;55146;47.468;18.806;2023-09-18T01:27:22;100220.97;;;20.00;78.73
68301;BME280;55146;47.468;18.806;2023-09-18T01:29:48;100221.66;;;19.97;78.96
68301;BME280;55146;47.468;18.806;2023-09-18T01:32:14;100219.19;;;19.95;78.97
68301;BME280;55146;47.468;18.806;2023-09-18T01:34:47;100232.69;;;19.93;79.05
68301;BME280;55146;47.468;18.806;2023-09-18T01:37:15;100227.75;;;19.90;79.15
68301;BME280;55146;47.468;18.806;2023-09-18T01:39:42;100225.66;;;19.87;79.41
68301;BME280;55146;47.468;18.806;2023-09-18T01:42:08;100226.81;;;19.86;79.48
68301;BME280;55146;47.468;18.806;2023-09-18T01:44:35;100227.94;;;19.85;79.44
68301;BME280;55146;47.468;18.806;2023-09-18T01:47:04;100222.69;;;19.84;79.47
68301;BME280;55146;47.468;18.806;2023-09-18T01:49:38;100224.84;;;19.78;79.71
68301;BME280;55146;47.468;18.806;2023-09-18T01:52:04;100228.28;;;19.75;79.86
68301;BME280;55146;47.468;18.806;2023-09-18T01:54:31;100218.31;;;19.74;79.89
68301;BME280;55146;47.468;18.806;2023-09-18T01:56:56;100219.91;;;19.75;79.86
68301;BME280;55146;47.468;18.806;2023-09-18T01:59:22;100215.00;;;19.72;79.88
68301;BME280;55146;47.468;18.806;2023-09-18T02:01:49;100217.81;;;19.72;79.87
68301;BME280;55146;47.468;18.806;2023-09-18T02:04:15;100224.38;;;19.67;79.99
68301;BME280;55146;47.468;18.806;2023-09-18T02:06:40;100215.19;;;19.67;80.04
68301;BME280;55146;47.468;18.806;2023-09-18T02:09:06;100220.59;;;19.63;80.10
68301;BME280;55146;47.468;18.806;2023-09-18T02:11:39;100218.97;;;19.62;80.10
68301;BME280;55146;47.468;18.806;2023-09-18T02:14:05;100211.25;;;19.59;80.08
68301;BME280;55146;47.468;18.806;2023-09-18T02:16:34;100212.41;;;19.58;80.30
68301;BME280;55146;47.468;18.806;2023-09-18T02:19:01;100214.22;;;19.54;80.46
68301;BME280;55146;47.468;18.806;2023-09-18T02:21:27;100214.56;;;19.53;80.61
68301;BME280;55146;47.468;18.806;2023-09-18T02:23:53;100219.63;;;19.42;80.83
68301;BME280;55146;47.468;18.806;2023-09-18T02:26:19;100221.94;;;19.40;81.11
68301;BME280;55146;47.468;18.806;2023-09-18T02:28:45;100218.31;;;19.39;81.15
68301;BME280;55146;47.468;18.806;2023-09-18T02:31:11;100219.97;;;19.40;81.25
68301;BME280;55146;47.468;18.806;2023-09-18T02:33:37;100225.53;;;19.40;81.21
68301;BME280;55146;47.468;18.806;2023-09-18T02:36:02;100223.56;;;19.41;81.31
68301;BME280;55146;47.468;18.806;2023-09-18T02:38:28;100218.62;;;19.38;81.36
68301;BME280;55146;47.468;18.806;2023-09-18T02:40:55;100226.84;;;19.34;81.60
68301;BME280;55146;47.468;18.806;2023-09-18T02:43:22;100224.25;;;19.29;81.97
68301;BME280;55146;47.468;18.806;2023-09-18T02:45:47;100232.78;;;19.16;82.21
68301;BME280;55146;47.468;18.806;2023-09-18T02:48:13;100222.44;;;19.08;82.86
68301;BME280;55146;47.468;18.806;2023-09-18T02:50:38;100227.19;;;19.07;82.91
68301;BME280;55146;47.468;18.806;2023-09-18T02:53:06;100236.06;;;19.01;83.66
68301;BME280;55146;47.468;18.806;2023-09-18T02:55:31;100229.66;;;18.91;84.20
68301;BME280;55146;47.468;18.806;2023-09-18T02:57:57;100230.31;;;18.88;84.40
68301;BME280;55146;47.468;18.806;2023-09-18T03:00:22;100224.06;;;18.91;84.26
68301;BME280;55146;47.468;18.806;2023-09-18T03:02:47;100222.63;;;18.94;84.22
68301;BME280;55146;47.468;18.806;2023-09-18T03:05:13;100227.37;;;18.93;84.20
68301;BME280;55146;47.468;18.806;2023-09-18T03:07:38;100231.94;;;18.98;84.11
68301;BME280;55146;47.468;18.806;2023-09-18T03:10:04;100225.06;;;19.04;83.81
68301;BME280;55146;47.468;18.806;2023-09-18T03:12:30;100226.72;;;19.05;83.63
68301;BME280;55146;47.468;18.806;2023-09-18T03:14:55;100220.47;;;19.08;83.44
68301;BME280;55146;47.468;18.806;2023-09-18T03:17:21;100222.28;;;19.04;83.41
68301;BME280;55146;47.468;18.806;2023-09-18T03:19:49;100212.94;;;19.00;83.65
68301;BME280;55146;47.468;18.806;2023-09-18T03:22:15;100214.41;;;18.97;83.74
68301;BME280;55146;47.468;18.806;2023-09-18T03:24:40;100207.50;;;18.95;83.82
68301;BME280;55146;47.468;18.806;2023-09-18T03:27:06;100208.81;;;18.97;83.74
68301;BME280;55146;47.468;18.806;2023-09-18T03:29:31;100207.19;;;18.96;83.79
68301;BME280;55146;47.468;18.806;2023-09-18T03:31:56;100207.38;;;19.00;83.68
68301;BME280;55146;47.468;18.806;2023-09-18T03:34:24;100207.00;;;19.02;83.48
68301;BME280;55146;47.468;18.806;2023-09-18T03:36:52;100212.75;;;18.96;83.36
68301;BME280;55146;47.468;18.806;2023-09-18T03:39:18;100202.94;;;18.99;83.35
68301;BME280;55146;47.468;18.806;2023-09-18T03:41:43;100207.34;;;18.91;83.88
68301;BME280;55146;47.468;18.806;2023-09-18T03:44:08;100197.66;;;18.89;83.95
68301;BME280;55146;47.468;18.806;2023-09-18T03:46:35;100200.97;;;18.82;84.32
68301;BME280;55146;47.468;18.806;2023-09-18T03:49:01;100198.31;;;18.77;84.62
68301;BME280;55146;47.468;18.806;2023-09-18T03:51:26;100203.25;;;18.80;84.65
68301;BME280;55146;47.468;18.806;2023-09-18T03:53:52;100201.59;;;18.79;84.67
68301;BME280;55146;47.468;18.806;2023-09-18T03:56:17;100200.13;;;18.82;84.68
68301;BME280;55146;47.468;18.806;2023-09-18T03:58:42;100194.72;;;18.85;84.14
68301;BME280;55146;47.468;18.806;2023-09-18T04:01:10;100192.25;;;18.84;84.02
68301;BME280;55146;47.468;18.806;2023-09-18T04:03:35;100191.91;;;18.77;84.53
68301;BME280;55146;47.468;18.806;2023-09-18T04:06:01;100198.31;;;18.77;84.64
68301;BME280;55146;47.468;18.806;2023-09-18T04:08:26;100195.03;;;18.75;84.61
68301;BME280;55146;47.468;18.806;2023-09-18T04:10:51;100193.56;;;18.78;83.91
68301;BME280;55146;47.468;18.806;2023-09-18T04:13:20;100190.63;;;18.74;84.06
68301;BME280;55146;47.468;18.806;2023-09-18T04:15:46;100190.94;;;18.81;83.61
68301;BME280;55146;47.468;18.806;2023-09-18T04:18:11;100179.63;;;18.78;83.15
68301;BME280;55146;47.468;18.806;2023-09-18T04:20:37;100183.72;;;18.80;83.35
68301;BME280;55146;47.468;18.806;2023-09-18T04:23:23;100177.00;;;18.81;83.25
68301;BME280;55146;47.468;18.806;2023-09-18T04:25:49;100181.91;;;18.84;82.84
68301;BME280;55146;47.468;18.806;2023-09-18T04:28:16;100173.22;;;18.77;83.44
68301;BME280;55146;47.468;18.806;2023-09-18T04:30:42;100171.25;;;18.78;83.53
68301;BME280;55146;47.468;18.806;2023-09-18T04:33:08;100172.09;;;18.70;83.97
68301;BME280;55146;47.468;18.806;2023-09-18T04:35:33;100172.41;;;18.68;84.26
68301;BME280;55146;47.468;18.806;2023-09-18T04:37:59;100165.16;;;18.58;84.59
68301;BME280;55146;47.468;18.806;2023-09-18T04:40:25;100169.59;;;18.59;84.54
68301;BME280;55146;47.468;18.806;2023-09-18T04:42:52;100170.28;;;18.56;84.38
68301;BME280;55146;47.468;18.806;2023-09-18T04:45:17;100170.75;;;18.58;84.30
68301;BME280;55146;47.468;18.806;2023-09-18T04:47:43;100167.13;;;18.58;84.55
68301;BME280;55146;47.468;18.806;2023-09-18T04:50:08;100166.66;;;18.65;84.11
68301;BME280;55146;47.468;18.806;2023-09-18T04:52:37;100170.59;;;18.64;83.86
68301;BME280;55146;47.468;18.806;2023-09-18T04:55:03;100166.00;;;18.59;84.23
68301;BME280;55146;47.468;18.806;2023-09-18T04:57:31;100168.09;;;18.53;84.47
68301;BME280;55146;47.468;18.806;2023-09-18T04:59:56;100164.81;;;18.51;84.48
68301;BME280;55146;47.468;18.806;2023-09-18T05:02:22;100168.25;;;18.48;84.66
68301;BME280;55146;47.468;18.806;2023-09-18T05:04:47;100174.31;;;18.50;84.82
68301;BME280;55146;47.468;18.806;2023-09-18T05:07:12;100175.47;;;18.49;84.73
68301;BME280;55146;47.468;18.806;2023-09-18T05:09:38;100173.81;;;18.48;84.99
68301;BME280;55146;47.468;18.806;2023-09-18T05:12:05;100165.31;;;18.53;84.30
68301;BME280;55146;47.468;18.806;2023-09-18T05:14:33;100173.88;;;18.57;83.77
68301;BME280;55146;47.468;18.806;2023-09-18T05:16:59;100176.75;;;18.52;84.24
68301;BME280;55146;47.468;18.806;2023-09-18T05:19:25;100172.22;;;18.56;84.27
68301;BME280;55146;47.468;18.806;2023-09-18T05:21:50;100178.16;;;18.63;84.21
68301;BME280;55146;47.468;18.806;2023-09-18T05:24:15;100177.66;;;18.70;83.97
68301;BME280;55146;47.468;18.806;2023-09-18T05:26:41;100179.44;;;18.66;83.84
68301;BME280;55146;47.468;18.806;2023-09-18T05:29:06;100192.41;;;18.70;83.36
68301;BME280;55146;47.468;18.806;2023-09-18T05:31:32;100185.53;;;18.68;83.27
68301;BME280;55146;47.468;18.806;2023-09-18T05:33:57;100188.00;;;18.69;82.98
68301;BME280;55146;47.468;18.806;2023-09-18T05:36:22;100183.37;;;18.65;83.28
68301;BME280;55146;47.468;18.806;2023-09-18T05:38:48;100181.88;;;18.58;83.61
68301;BME280;55146;47.468;18.806;2023-09-18T05:41:13;100176.31;;;18.58;84.03
68301;BME280;55146;47.468;18.806;2023-09-18T05:43:38;100174.53;;;18.63;83.75
68301;BME280;55146;47.468;18.806;2023-09-18T05:46:04;100175.34;;;18.63;83.87
68301;BME280;55146;47.468;18.806;2023-09-18T05:48:29;100180.28;;;18.57;83.97
68301;BME280;55146;47.468;18.806;2023-09-18T05:50:55;100177.31;;;18.63;84.29
68301;BME280;55146;47.468;18.806;2023-09-18T05:53:20;100172.22;;;18.65;84.01
68301;BME280;55146;47.468;18.806;2023-09-18T05:55:47;100174.38;;;18.68;84.03
68301;BME280;55146;47.468;18.806;2023-09-18T05:58:12;100173.22;;;18.60;83.96
68301;BME280;55146;47.468;18.806;2023-09-18T06:00:37;100179.44;;;18.66;84.78
68301;BME280;55146;47.468;18.806;2023-09-18T06:03:03;100184.38;;;18.69;84.23
68301;BME280;55146;47.468;18.806;2023-09-18T06:05:31;100174.22;;;18.73;84.09
68301;BME280;55146;47.468;18.806;2023-09-18T06:07:59;100181.75;;;18.72;84.24
68301;BME280;55146;47.468;18.806;2023-09-18T06:10:24;100179.94;;;18.76;83.74
68301;BME280;55146;47.468;18.806;2023-09-18T06:12:50;100176.34;;;18.84;83.31
68301;BME280;55146;47.468;18.806;2023-09-18T06:15:15;100173.72;;;18.96;82.52
68301;BME280;55146;47.468;18.806;2023-09-18T06:17:43;100186.34;;;18.85;83.98
68301;BME280;55146;47.468;18.806;2023-09-18T06:20:09;100182.75;;;18.93;83.54
68301;BME280;55146;47.468;18.806;2023-09-18T06:22:36;100168.16;;;18.96;83.52
68301;BME280;55146;47.468;18.806;2023-09-18T06:25:03;100169.16;;;19.01;84.46
68301;BME280;55146;47.468;18.806;2023-09-18T06:27:28;100161.09;;;19.16;82.84
68301;BME280;55146;47.468;18.806;2023-09-18T06:29:54;100165.50;;;19.17;84.08
68301;BME280;55146;47.468;18.806;2023-09-18T06:32:19;100168.44;;;19.21;83.45
68301;BME280;55146;47.468;18.806;2023-09-18T06:34:44;100164.03;;;19.28;83.42
68301;BME280;55146;47.468;18.806;2023-09-18T06:37:10;100172.19;;;19.42;82.88
68301;BME280;55146;47.468;18.806;2023-09-18T06:39:38;100164.31;;;19.53;82.61
68301;BME280;55146;47.468;18.806;2023-09-18T06:42:04;100161.81;;;19.68;81.66
68301;BME280;55146;47.468;18.806;2023-09-18T06:44:29;100169.63;;;19.92;82.49
68301;BME280;55146;47.468;18.806;2023-09-18T06:46:55;100163.22;;;20.21;80.08
68301;BME280;55146;47.468;18.806;2023-09-18T06:49:20;100163.44;;;20.45;78.57
68301;BME280;55146;47.468;18.806;2023-09-18T06:51:45;100167.09;;;20.67;77.85
68301;BME280;55146;47.468;18.806;2023-09-18T06:54:11;100156.38;;;20.89;76.72
68301;BME280;55146;47.468;18.806;2023-09-18T06:56:36;100161.06;;;21.18;76.70
68301;BME280;55146;47.468;18.806;2023-09-18T06:59:01;100154.78;;;21.54;75.49
68301;BME280;55146;47.468;18.806;2023-09-18T07:01:27;100163.59;;;21.77;74.14
68301;BME280;55146;47.468;18.806;2023-09-18T07:03:53;100159.78;;;22.06;72.70
68301;BME280;55146;47.468;18.806;2023-09-18T07:06:19;100157.81;;;22.18;70.86
68301;BME280;55146;47.468;18.806;2023-09-18T07:08:45;100164.47;;;22.38;70.33
68301;BME280;55146;47.468;18.806;2023-09-18T07:11:11;100169.91;;;22.59;67.83
68301;BME280;55146;47.468;18.806;2023-09-18T07:13:40;100156.97;;;22.54;68.17
68301;BME280;55146;47.468;18.806;2023-09-18T07:16:05;100150.91;;;22.52;68.13
68301;BME280;55146;47.468;18.806;2023-09-18T07:18:31;100147.59;;;22.75;67.39
68301;BME280;55146;47.468;18.806;2023-09-18T07:20:56;100156.06;;;22.90;67.17
68301;BME280;55146;47.468;18.806;2023-09-18T07:23:22;100151.03;;;22.96;67.32
68301;BME280;55146;47.468;18.806;2023-09-18T07:25:48;100148.94;;;23.21;66.48
68301;BME280;55146;47.468;18.806;2023-09-18T07:28:13;100157.38;;;23.21;65.82
68301;BME280;55146;47.468;18.806;2023-09-18T07:30:43;100148.44;;;23.31;65.33
68301;BME280;55146;47.468;18.806;2023-09-18T07:33:09;100148.44;;;23.31;65.79
68301;BME280;55146;47.468;18.806;2023-09-18T07:35:35;100144.25;;;23.53;64.95
68301;BME280;55146;47.468;18.806;2023-09-18T07:38:00;100137.56;;;23.57;64.30
68301;BME280;55146;47.468;18.806;2023-09-18T07:40:25;100143.56;;;23.71;63.70
68301;BME280;55146;47.468;18.806;2023-09-18T07:42:51;100139.56;;;23.57;64.62
68301;BME280;55146;47.468;18.806;2023-09-18T07:45:16;100138.94;;;23.63;64.42
68301;BME280;55146;47.468;18.806;2023-09-18T07:47:43;100141.28;;;23.77;64.45
68301;BME280;55146;47.468;18.806;2023-09-18T07:50:08;100135.41;;;23.98;63.98
68301;BME280;55146;47.468;18.806;2023-09-18T07:52:34;100131.22;;;24.07;64.85
68301;BME280;55146;47.468;18.806;2023-09-18T07:54:59;100133.59;;;24.21;64.17
68301;BME280;55146;47.468;18.806;2023-09-18T07:57:25;100131.09;;;24.51;63.03
68301;BME280;55146;47.468;18.806;2023-09-18T07:59:53;100129.34;;;24.62;61.60
68301;BME280;55146;47.468;18.806;2023-09-18T08:02:18;100134.22;;;24.65;61.08
68301;BME280;55146;47.468;18.806;2023-09-18T08:04:44;100122.78;;;24.74;60.08
68301;BME280;55146;47.468;18.806;2023-09-18T08:07:09;100122.84;;;24.77;61.39
68301;BME280;55146;47.468;18.806;2023-09-18T08:09:35;100121.44;;;24.87;62.29
68301;BME280;55146;47.468;18.806;2023-09-18T08:12:05;100115.63;;;24.95;60.27
68301;BME280;55146;47.468;18.806;2023-09-18T08:14:30;100107.38;;;24.87;61.26
68301;BME280;55146;47.468;18.806;2023-09-18T08:17:00;100105.69;;;25.02;59.51
68301;BME280;55146;47.468;18.806;2023-09-18T08:19:26;100091.91;;;24.96;59.47
68301;BME280;55146;47.468;18.806;2023-09-18T08:21:55;100101.34;;;24.88;59.74
68301;BME280;55146;47.468;18.806;2023-09-18T08:24:22;100100.06;;;25.02;60.00
68301;BME280;55146;47.468;18.806;2023-09-18T08:26:47;100094.91;;;25.26;59.06
68301;BME280;55146;47.468;18.806;2023-09-18T08:29:13;100098.09;;;25.25;58.72
68301;BME280;55146;47.468;18.806;2023-09-18T08:31:38;100103.31;;;25.23;58.41
68301;BME280;55146;47.468;18.806;2023-09-18T08:34:04;100099.22;;;25.20;59.65
68301;BME280;55146;47.468;18.806;2023-09-18T08:36:29;100085.47;;;25.38;61.64
68301;BME280;55146;47.468;18.806;2023-09-18T08:38:56;100101.00;;;25.70;59.05
68301;BME280;55146;47.468;18.806;2023-09-18T08:41:23;100094.16;;;25.71;57.50
68301;BME280;55146;47.468;18.806;2023-09-18T08:43:52;100100.16;;;25.70;57.32
68301;BME280;55146;47.468;18.806;2023-09-18T08:46:18;100100.34;;;25.58;59.28
68301;BME280;55146;47.468;18.806;2023-09-18T08:48:44;100103.97;;;25.81;57.69
68301;BME280;55146;47.468;18.806;2023-09-18T08:51:10;100097.28;;;25.89;57.38
68301;BME280;55146;47.468;18.806;2023-09-18T08:53:36;100108.59;;;25.93;57.22
68301;BME280;55146;47.468;18.806;2023-09-18T08:56:03;100107.81;;;25.92;57.42
68301;BME280;55146;47.468;18.806;2023-09-18T08:58:34;100114.13;;;25.63;57.42
68301;BME280;55146;47.468;18.806;2023-09-18T09:01:03;100121.22;;;25.76;57.34
68301;BME280;55146;47.468;18.806;2023-09-18T09:03:41;100119.38;;;25.87;57.36
68301;BME280;55146;47.468;18.806;2023-09-18T09:06:08;100110.94;;;25.87;57.48
68301;BME280;55146;47.468;18.806;2023-09-18T09:08:35;100114.50;;;26.07;57.42
68301;BME280;55146;47.468;18.806;2023-09-18T09:11:01;100108.59;;;26.15;57.22
68301;BME280;55146;47.468;18.806;2023-09-18T09:13:27;100110.78;;;26.26;56.93
68301;BME280;55146;47.468;18.806;2023-09-18T09:15:54;100111.63;;;26.56;59.30
68301;BME280;55146;47.468;18.806;2023-09-18T09:18:22;100111.03;;;26.70;56.06
68301;BME280;55146;47.468;18.806;2023-09-18T09:23:23;100103.56;;;26.84;54.76
68301;BME280;55146;47.468;18.806;2023-09-18T09:25:49;100086.81;;;26.69;54.00
68301;BME280;55146;47.468;18.806;2023-09-18T09:28:15;100094.22;;;26.80;54.87
68301;BME280;55146;47.468;18.806;2023-09-18T09:30:42;100099.72;;;26.96;54.75
68301;BME280;55146;47.468;18.806;2023-09-18T09:33:11;100102.47;;;27.26;53.67
68301;BME280;55146;47.468;18.806;2023-09-18T09:35:37;100101.03;;;27.43;52.08
68301;BME280;55146;47.468;18.806;2023-09-18T09:38:12;100100.97;;;27.35;53.55
68301;BME280;55146;47.468;18.806;2023-09-18T09:40:42;100100.69;;;27.48;52.57
68301;BME280;55146;47.468;18.806;2023-09-18T09:43:10;100092.19;;;27.44;51.89
68301;BME280;55146;47.468;18.806;2023-09-18T09:45:36;100083.12;;;27.28;52.97
68301;BME280;55146;47.468;18.806;2023-09-18T09:48:05;100082.44;;;27.05;54.01
68301;BME280;55146;47.468;18.806;2023-09-18T09:50:32;100074.69;;;27.31;53.64
68301;BME280;55146;47.468;18.806;2023-09-18T09:52:58;100062.09;;;27.22;52.21
68301;BME280;55146;47.468;18.806;2023-09-18T09:55:32;100053.72;;;27.32;52.89
68301;BME280;55146;47.468;18.806;2023-09-18T09:58:04;100062.81;;;27.52;52.84
68301;BME280;55146;47.468;18.806;2023-09-18T10:00:36;100065.06;;;27.76;53.61
68301;BME280;55146;47.468;18.806;2023-09-18T10:03:12;100054.41;;;28.10;52.65
68301;BME280;55146;47.468;18.806;2023-09-18T10:05:39;100056.22;;;28.36;50.45
68301;BME280;55146;47.468;18.806;2023-09-18T10:08:09;100054.97;;;28.30;49.54
68301;BME280;55146;47.468;18.806;2023-09-18T10:10:38;100043.03;;;28.03;50.97
68301;BME280;55146;47.468;18.806;2023-09-18T10:13:16;100039.88;;;28.12;50.44
68301;BME280;55146;47.468;18.806;2023-09-18T10:15:42;100035.75;;;28.02;51.04
68301;BME280;55146;47.468;18.806;2023-09-18T10:18:17;100033.91;;;28.21;49.95
68301;BME280;55146;47.468;18.806;2023-09-18T10:20:44;100028.69;;;28.33;50.33
68301;BME280;55146;47.468;18.806;2023-09-18T10:23:38;100029.50;;;28.27;49.75
68301;BME280;55146;47.468;18.806;2023-09-18T10:26:05;100022.41;;;27.99;50.27
68301;BME280;55146;47.468;18.806;2023-09-18T10:28:33;100014.19;;;27.84;51.32
68301;BME280;55146;47.468;18.806;2023-09-18T10:30:59;100007.97;;;28.15;50.64
68301;BME280;55146;47.468;18.806;2023-09-18T10:33:26;100015.97;;;28.06;51.05
68301;BME280;55146;47.468;18.806;2023-09-18T10:35:53;100010.47;;;28.24;49.79
68301;BME280;55146;47.468;18.806;2023-09-18T10:38:18;100001.91;;;28.16;50.38
68301;BME280;55146;47.468;18.806;2023-09-18T10:40:46;100005.19;;;28.22;50.55
68301;BME280;55146;47.468;18.806;2023-09-18T10:43:15;100009.66;;;28.23;51.46
68301;BME280;55146;47.468;18.806;2023-09-18T10:45:41;100003.69;;;28.46;49.46
68301;BME280;55146;47.468;18.806;2023-09-18T10:48:08;100011.41;;;28.52;49.85
68301;BME280;55146;47.468;18.806;2023-09-18T10:50:34;99994.37;;;28.45;48.38
68301;BME280;55146;47.468;18.806;2023-09-18T10:53:00;100001.19;;;28.27;49.36
68301;BME280;55146;47.468;18.806;2023-09-18T10:55:26;100002.34;;;28.22;49.37
68301;BME280;55146;47.468;18.806;2023-09-18T10:57:53;99999.53;;;28.19;49.61
68301;BME280;55146;47.468;18.806;2023-09-18T11:00:21;99998.44;;;28.44;49.93
68301;BME280;55146;47.468;18.806;2023-09-18T11:03:17;99991.81;;;28.15;49.51
68301;BME280;55146;47.468;18.806;2023-09-18T11:05:47;99986.41;;;27.96;50.00
68301;BME280;55146;47.468;18.806;2023-09-18T11:11:08;99965.22;;;28.34;49.13
68301;BME280;55146;47.468;18.806;2023-09-18T11:13:44;99955.19;;;28.47;49.32
68301;BME280;55146;47.468;18.806;2023-09-18T11:19:07;99966.47;;;28.40;48.45
68301;BME280;55146;47.468;18.806;2023-09-18T11:21:33;99954.78;;;28.49;48.70
68301;BME280;55146;47.468;18.806;2023-09-18T11:24:04;99949.16;;;28.56;48.73
68301;BME280;55146;47.468;18.806;2023-09-18T11:26:35;99962.81;;;28.40;48.91
68301;BME280;55146;47.468;18.806;2023-09-18T11:29:04;99953.59;;;28.50;48.14
68301;BME280;55146;47.468;18.806;2023-09-18T11:31:50;99951.09;;;28.41;49.56
68301;BME280;55146;47.468;18.806;2023-09-18T11:34:27;99958.81;;;28.48;48.17
68301;BME280;55146;47.468;18.806;2023-09-18T11:37:00;99941.78;;;28.34;49.96
68301;BME280;55146;47.468;18.806;2023-09-18T11:39:39;99956.37;;;28.43;48.25
68301;BME280;55146;47.468;18.806;2023-09-18T11:44:35;99942.94;;;28.22;48.33
68301;BME280;55146;47.468;18.806;2023-09-18T11:47:07;99937.97;;;28.05;48.08
68301;BME280;55146;47.468;18.806;2023-09-18T11:49:33;99944.00;;;28.00;49.73
68301;BME280;55146;47.468;18.806;2023-09-18T11:51:59;99936.72;;;27.95;48.94
68301;BME280;55146;47.468;18.806;2023-09-18T11:54:25;99927.34;;;27.81;47.96
68301;BME280;55146;47.468;18.806;2023-09-18T11:56:52;99917.59;;;27.78;48.60
68301;BME280;55146;47.468;18.806;2023-09-18T11:59:17;99907.63;;;27.98;47.96
68301;BME280;55146;47.468;18.806;2023-09-18T12:01:52;99904.59;;;28.32;48.07
68301;BME280;55146;47.468;18.806;2023-09-18T12:04:27;99900.19;;;28.48;46.41
68301;BME280;55146;47.468;18.806;2023-09-18T12:06:52;99913.03;;;28.25;47.82
68301;BME280;55146;47.468;18.806;2023-09-18T12:09:18;99912.13;;;28.06;47.19
68301;BME280;55146;47.468;18.806;2023-09-18T12:11:45;99905.34;;;28.18;47.10
68301;BME280;55146;47.468;18.806;2023-09-18T12:14:10;99902.53;;;28.29;46.68
68301;BME280;55146;47.468;18.806;2023-09-18T12:16:39;99901.31;;;28.23;47.32
68301;BME280;55146;47.468;18.806;2023-09-18T12:19:05;99901.63;;;28.07;47.90
68301;BME280;55146;47.468;18.806;2023-09-18T12:21:32;99902.72;;;27.85;47.90
68301;BME280;55146;47.468;18.806;2023-09-18T12:23:58;99893.87;;;27.93;47.89
68301;BME280;55146;47.468;18.806;2023-09-18T12:26:25;99888.22;;;27.93;47.80
68301;BME280;55146;47.468;18.806;2023-09-18T12:28:51;99889.84;;;27.98;47.71
68301;BME280;55146;47.468;18.806;2023-09-18T12:31:16;99874.94;;;28.04;46.81
68301;BME280;55146;47.468;18.806;2023-09-18T12:33:43;99873.66;;;27.91;47.49
68301;BME280;55146;47.468;18.806;2023-09-18T12:36:13;99872.91;;;28.05;47.35
68301;BME280;55146;47.468;18.806;2023-09-18T12:38:39;99863.19;;;27.95;47.13
68301;BME280;55146;47.468;18.806;2023-09-18T12:41:05;99859.13;;;27.89;47.97
68301;BME280;55146;47.468;18.806;2023-09-18T12:43:40;99873.31;;;28.00;47.15
68301;BME280;55146;47.468;18.806;2023-09-18T12:46:06;99868.81;;;27.92;47.34
68301;BME280;55146;47.468;18.806;2023-09-18T12:48:39;99850.69;;;28.03;47.38
68301;BME280;55146;47.468;18.806;2023-09-18T12:51:10;99854.78;;;28.13;46.85
68301;BME280;55146;47.468;18.806;2023-09-18T12:53:36;99855.94;;;28.08;46.69